<?xml version='1.0' encoding='UTF-8'?>
<gpx xmlns="http://www.topografix.com/GPX/1/1" creator="www.balnam.be" version="1.1" xmlns:xsi="http://www.w3.org/2001/XMLSchema-instance" xsi:schemaLocation="http://www.topografix.com/GPX/1/1 http://www.topografix.com/GPX/1/1/gpx.xsd">
<trk>
<name>hecee113</name>
<cmt>q</cmt>
<desc>Ecaussinnes-d'Enghien Sentier n°113 Rue du Flou</desc>
<link href="https://chemins.be/ecaussinnesdenghien/sentier/113"/><trkseg>
<trkpt lat="50.562912" lon="4.162738"><time>2026-05-02T22:08:51Z</time></trkpt>
<trkpt lat="50.562534" lon="4.162104"><time>2026-05-02T22:18:51Z</time></trkpt>
<trkpt lat="50.562432" lon="4.160806"><time>2026-05-02T22:28:51Z</time></trkpt>
<trkpt lat="50.562018" lon="4.160300"><time>2026-05-02T22:38:51Z</time></trkpt>
<trkpt lat="50.561648" lon="4.159751"><time>2026-05-02T22:48:51Z</time></trkpt>
<trkpt lat="50.561351" lon="4.159315"><time>2026-05-02T22:58:51Z</time></trkpt>
</trkseg></trk>
<trk>
<name>hecee113</name>
<cmt>r</cmt>
<desc>Ecaussinnes-d'Enghien Sentier n°113 Rue du Flou</desc>
<link href="https://chemins.be/ecaussinnesdenghien/sentier/113"/><trkseg>
<trkpt lat="50.561351" lon="4.159315"><time>2026-05-02T22:58:51Z</time></trkpt>
<trkpt lat="50.561109" lon="4.159556"><time>2026-05-02T23:08:51Z</time></trkpt>
<trkpt lat="50.560612" lon="4.158429"><time>2026-05-02T23:18:51Z</time></trkpt>
<trkpt lat="50.560899" lon="4.157764"><time>2026-05-02T23:28:51Z</time></trkpt>
</trkseg></trk>
<trk>
<name>hecee113</name>
<cmt>v</cmt>
<desc>Ecaussinnes-d'Enghien Sentier n°113 Rue du Flou</desc>
<link href="https://chemins.be/ecaussinnesdenghien/sentier/113"/><trkseg>
<trkpt lat="50.560899" lon="4.157764"><time>2026-05-02T23:28:51Z</time></trkpt>
<trkpt lat="50.560781" lon="4.157341"><time>2026-05-02T23:38:51Z</time></trkpt>
<trkpt lat="50.560780" lon="4.156678"><time>2026-05-02T23:48:51Z</time></trkpt>
<trkpt lat="50.561066" lon="4.155929"><time>2026-05-02T23:58:51Z</time></trkpt>
<trkpt lat="50.560975" lon="4.155308"><time>2026-05-03T00:08:51Z</time></trkpt>
<trkpt lat="50.560965" lon="4.154659"><time>2026-05-03T00:18:51Z</time></trkpt>
<trkpt lat="50.561000" lon="4.154024"><time>2026-05-03T00:28:51Z</time></trkpt>
<trkpt lat="50.561099" lon="4.154051"><time>2026-05-03T00:38:51Z</time></trkpt>
</trkseg></trk>
<trk>
<name>hecee113</name>
<cmt>q</cmt>
<desc>Ecaussinnes-d'Enghien Sentier n°113 Rue du Flou</desc>
<link href="https://chemins.be/ecaussinnesdenghien/sentier/113"/><trkseg>
<trkpt lat="50.561099" lon="4.154051"><time>2026-05-03T00:38:51Z</time></trkpt>
<trkpt lat="50.561402" lon="4.152822"><time>2026-05-03T00:48:51Z</time></trkpt>
</trkseg></trk>
<trk>
<name>hecee113</name>
<cmt>r</cmt>
<desc>Ecaussinnes-d'Enghien Sentier n°113 Rue du Flou</desc>
<link href="https://chemins.be/ecaussinnesdenghien/sentier/113"/><trkseg>
<trkpt lat="50.561402" lon="4.152822"><time>2026-05-03T00:48:51Z</time></trkpt>
<trkpt lat="50.561910" lon="4.150562"><time>2026-05-03T00:58:51Z</time></trkpt>
</trkseg></trk>
<trk>
<name>hecee113</name>
<cmt>v</cmt>
<desc>Ecaussinnes-d'Enghien Sentier n°113 Rue du Flou</desc>
<link href="https://chemins.be/ecaussinnesdenghien/sentier/113"/><trkseg>
<trkpt lat="50.561910" lon="4.150562"><time>2026-05-03T00:58:51Z</time></trkpt>
<trkpt lat="50.562089" lon="4.149827"><time>2026-05-03T01:08:51Z</time></trkpt>
</trkseg></trk>
<trk>
<name>hecee113</name>
<cmt>q</cmt>
<desc>Ecaussinnes-d'Enghien Sentier n°113 Rue du Flou</desc>
<link href="https://chemins.be/ecaussinnesdenghien/sentier/113"/><trkseg>
<trkpt lat="50.562089" lon="4.149827"><time>2026-05-03T01:08:51Z</time></trkpt>
<trkpt lat="50.562383" lon="4.148569"><time>2026-05-03T01:18:51Z</time></trkpt>
</trkseg></trk>
<trk>
<name>hecee113</name>
<cmt>s</cmt>
<desc>Ecaussinnes-d'Enghien Sentier n°113 Rue du Flou</desc>
<link href="https://chemins.be/ecaussinnesdenghien/sentier/113"/><trkseg>
<trkpt lat="50.562383" lon="4.148569"><time>2026-05-03T01:18:51Z</time></trkpt>
<trkpt lat="50.562507" lon="4.147256"><time>2026-05-03T01:28:51Z</time></trkpt>
<trkpt lat="50.562424" lon="4.146650"><time>2026-05-03T01:38:51Z</time></trkpt>
<trkpt lat="50.562198" lon="4.145606"><time>2026-05-03T01:48:51Z</time></trkpt>
<trkpt lat="50.562664" lon="4.144927"><time>2026-05-03T01:58:51Z</time></trkpt>
</trkseg>
</trk>
</gpx>